createdAt,value
2018-02-04T00:02:38.091Z,11.43
2018-02-04T00:05:40.242Z,10.97
2018-02-04T00:08:41.602Z,11.50
2018-02-04T00:11:42.978Z,12.13
2018-02-04T00:14:45.098Z,14.07
2018-02-04T00:17:46.512Z,12.47
2018-02-04T00:20:48.626Z,14.27
2018-02-04T00:23:50.004Z,14.83
2018-02-04T00:26:51.394Z,12.17
2018-02-04T00:29:52.808Z,13.00
2018-02-04T00:32:54.188Z,12.60
2018-02-04T00:35:55.586Z,14.97
2018-02-04T00:38:57.203Z,13.40
2018-02-04T00:41:59.332Z,13.97
2018-02-04T00:45:00.712Z,13.73
2018-02-04T00:48:02.082Z,13.77
2018-02-04T00:51:03.458Z,13.20
2018-02-04T00:54:05.539Z,15.43
2018-02-04T00:57:07.680Z,13.90
2018-02-04T01:00:09.062Z,14.30
2018-02-04T01:03:10.445Z,14.53
2018-02-04T01:06:11.840Z,13.07
2018-02-04T01:09:13.187Z,14.70
2018-02-04T01:12:14.601Z,12.77
2018-02-04T01:15:16.030Z,13.13
2018-02-04T01:18:18.176Z,14.27
2018-02-04T01:21:19.520Z,14.37
2018-02-04T01:24:21.662Z,13.83
2018-02-04T01:27:23.030Z,15.00
2018-02-04T01:30:24.403Z,14.27
2018-02-04T01:33:32.675Z,15.40
2018-02-04T01:36:34.090Z,10.83
2018-02-04T01:39:36.246Z,15.93
2018-02-04T01:42:37.587Z,15.23
2018-02-04T01:45:39.152Z,18.10
2018-02-04T01:48:40.529Z,15.00
2018-02-04T01:51:41.860Z,12.80
2018-02-04T01:54:43.246Z,12.10
2018-02-04T01:57:44.609Z,15.37
2018-02-04T02:00:45.982Z,13.07
2018-02-04T02:03:48.108Z,12.20
2018-02-04T02:06:49.546Z,12.63
2018-02-04T02:09:51.626Z,13.17
2018-02-04T02:12:53.013Z,11.93
2018-02-04T02:15:54.391Z,13.03
2018-02-04T02:18:55.738Z,14.00
2018-02-04T02:21:57.176Z,13.50
2018-02-04T02:24:59.271Z,13.77
2018-02-04T02:28:01.339Z,13.50
2018-02-04T02:31:02.720Z,13.47
2018-02-04T02:34:04.483Z,11.60
2018-02-04T02:37:06.318Z,11.53
2018-02-04T02:40:08.832Z,9.87
2018-02-04T02:43:10.677Z,12.53
2018-02-04T02:46:12.042Z,11.77
2018-02-04T02:49:13.480Z,12.20
2018-02-04T02:52:14.913Z,11.83
2018-02-04T02:55:17.105Z,10.60
2018-02-04T02:58:18.448Z,12.10
2018-02-04T03:01:19.848Z,11.63
2018-02-04T03:04:22.012Z,10.53
2018-02-04T03:07:23.436Z,10.87
2018-02-04T03:10:24.805Z,11.47
2018-02-04T03:13:26.957Z,11.33
2018-02-04T03:16:28.381Z,11.00
2018-02-04T03:19:30.531Z,12.40
2018-02-04T03:22:31.911Z,11.13
2018-02-04T03:25:33.318Z,10.87
2018-02-04T03:28:34.677Z,11.13
2018-02-04T03:31:36.089Z,12.07
2018-02-04T03:34:38.200Z,12.30
2018-02-04T03:37:40.359Z,11.83
2018-02-04T03:40:41.749Z,12.40
2018-02-04T03:43:43.166Z,11.60
2018-02-04T03:46:45.286Z,12.50
2018-02-04T03:49:47.269Z,11.77
2018-02-04T03:52:49.422Z,12.37
2018-02-04T03:55:50.817Z,9.93
2018-02-04T03:58:52.192Z,11.50
2018-02-04T04:01:53.604Z,11.43
2018-02-04T04:04:55.714Z,10.43
2018-02-04T04:07:57.846Z,9.50
2018-02-04T04:10:59.253Z,10.43
2018-02-04T04:14:00.696Z,10.30
2018-02-04T04:17:02.143Z,10.80
2018-02-04T04:20:03.519Z,8.40
2018-02-04T04:23:04.870Z,8.37
2018-02-04T04:26:06.260Z,8.53
2018-02-04T04:29:07.644Z,7.10
2018-02-04T04:32:09.011Z,8.13
2018-02-04T04:35:10.358Z,7.00
2018-02-04T04:38:11.775Z,8.00
2018-02-04T04:41:13.124Z,7.27
2018-02-04T04:44:14.485Z,7.33
2018-02-04T04:47:16.654Z,7.30
2018-02-04T04:50:18.046Z,6.77
2018-02-04T04:53:19.398Z,7.60
2018-02-04T04:56:21.513Z,7.20
2018-02-04T04:59:22.893Z,7.17
2018-02-04T05:02:24.227Z,6.30
2018-02-04T05:05:25.595Z,7.30
2018-02-04T05:08:27.663Z,7.77
2018-02-04T05:11:29.075Z,7.20
2018-02-04T05:14:30.410Z,7.63
2018-02-04T05:17:31.766Z,7.40
2018-02-04T05:20:33.125Z,7.93
2018-02-04T05:23:34.464Z,6.73
2018-02-04T05:26:35.844Z,7.93
2018-02-04T05:29:37.200Z,6.60
2018-02-04T05:32:38.586Z,6.23
2018-02-04T05:35:40.002Z,6.87
2018-02-04T05:38:42.132Z,6.67
2018-02-04T05:41:43.466Z,6.60
2018-02-04T05:44:44.828Z,6.33
2018-02-04T05:47:46.228Z,5.33
2018-02-04T05:50:47.690Z,5.77
2018-02-04T05:53:49.080Z,6.00
2018-02-04T05:56:50.453Z,6.03
2018-02-04T05:59:51.798Z,5.20
2018-02-04T06:02:53.180Z,5.23
2018-02-04T06:05:54.526Z,4.57
2018-02-04T06:08:55.914Z,4.20
2018-02-04T06:11:58.003Z,5.60
2018-02-04T06:14:59.384Z,3.80
2018-02-04T06:18:00.747Z,3.60
2018-02-04T06:21:02.136Z,4.00
2018-02-04T06:24:03.507Z,3.83
2018-02-04T06:27:04.924Z,4.27
2018-02-04T06:30:07.012Z,3.67
2018-02-04T06:33:08.437Z,4.23
2018-02-04T06:36:09.754Z,4.23
2018-02-04T06:39:11.115Z,3.40
2018-02-04T06:42:12.433Z,3.83
2018-02-04T06:45:13.877Z,3.83
2018-02-04T06:48:15.215Z,3.33
2018-02-04T06:51:16.617Z,4.33
2018-02-04T06:54:18.008Z,3.60
2018-02-04T06:57:19.397Z,3.90
2018-02-04T07:00:20.709Z,3.67
2018-02-04T07:03:22.081Z,3.70
2018-02-04T07:06:23.510Z,3.90
2018-02-04T07:09:25.591Z,5.30
2018-02-04T07:12:27.655Z,3.67
2018-02-04T07:15:29.017Z,3.70
2018-02-04T07:18:30.318Z,4.00
2018-02-04T07:21:31.749Z,4.10
2018-02-04T07:24:33.105Z,4.10
2018-02-04T07:27:35.190Z,3.97
2018-02-04T07:30:36.541Z,3.83
2018-02-04T07:33:37.912Z,4.10
2018-02-04T07:36:39.294Z,3.93
2018-02-04T07:39:40.614Z,4.23
2018-02-04T07:42:41.976Z,3.73
2018-02-04T07:45:43.350Z,12.40
2018-02-04T07:48:44.670Z,20.37
2018-02-04T07:51:46.739Z,8.20
2018-02-04T07:54:48.087Z,4.53
2018-02-04T07:57:49.452Z,4.10
2018-02-04T08:00:50.818Z,5.53
2018-02-04T08:03:53.116Z,4.40
2018-02-04T08:06:55.186Z,4.33
2018-02-04T08:09:56.636Z,4.30
2018-02-04T08:12:57.958Z,4.63
2018-02-04T08:15:59.317Z,4.60
2018-02-04T08:19:00.690Z,5.10
2018-02-04T08:22:02.050Z,5.13
2018-02-04T08:25:03.389Z,5.20
2018-02-04T08:28:04.731Z,4.53
2018-02-04T08:31:06.003Z,5.30
2018-02-04T08:34:07.334Z,4.83
2018-02-04T08:37:09.440Z,4.47
2018-02-04T08:40:11.540Z,4.80
2018-02-04T08:43:13.601Z,4.97
2018-02-04T08:46:14.926Z,5.17
2018-02-04T08:49:16.230Z,6.13
2018-02-04T08:52:17.582Z,5.93
2018-02-04T08:55:19.663Z,5.50
2018-02-04T08:58:21.764Z,5.87
2018-02-04T09:01:23.921Z,22.97
2018-02-04T09:04:25.254Z,7.30
2018-02-04T09:07:26.575Z,5.13
2018-02-04T09:10:27.886Z,5.17
2018-02-04T09:13:29.405Z,5.50
2018-02-04T09:16:30.738Z,5.10
2018-02-04T09:19:32.062Z,5.90
2018-02-04T09:22:34.161Z,5.87
2018-02-04T09:25:35.537Z,5.20
2018-02-04T09:28:37.726Z,5.77
2018-02-04T09:31:40.120Z,6.03
2018-02-04T09:34:43.107Z,5.40
2018-02-04T09:37:44.689Z,5.40
2018-02-04T09:40:46.492Z,5.80
2018-02-04T09:43:47.854Z,5.80
2018-02-04T09:46:49.416Z,7.23
2018-02-04T09:49:52.181Z,6.27
2018-02-04T09:52:55.347Z,6.50
2018-02-04T09:55:57.591Z,6.70
2018-02-04T09:58:59.177Z,6.60
2018-02-04T10:02:00.575Z,6.40
2018-02-04T10:05:01.899Z,6.90
2018-02-04T10:08:03.916Z,6.23
2018-02-04T10:11:05.283Z,6.40
2018-02-04T10:14:06.885Z,6.60
2018-02-04T10:17:08.322Z,6.70
2018-02-04T10:20:09.752Z,7.20
2018-02-04T10:23:12.628Z,6.80
2018-02-04T10:26:13.978Z,7.57
2018-02-04T10:29:15.233Z,6.10
2018-02-04T10:32:16.658Z,6.50
2018-02-04T10:35:18.348Z,8.23
2018-02-04T10:38:19.682Z,5.57
2018-02-04T10:41:21.018Z,4.97
2018-02-04T10:44:22.352Z,6.73
2018-02-04T10:47:23.655Z,7.70
2018-02-04T10:50:25.378Z,17.97
2018-02-04T10:53:26.712Z,6.23
2018-02-04T10:56:28.039Z,4.67
2018-02-04T10:59:30.229Z,5.83
2018-02-04T11:02:31.558Z,7.67
2018-02-04T11:05:32.958Z,4.90
2018-02-04T11:08:34.702Z,5.40
2018-02-04T11:11:36.123Z,6.60
2018-02-04T11:14:37.568Z,6.00
2018-02-04T11:17:40.797Z,7.90
2018-02-04T11:20:42.144Z,7.33
2018-02-04T11:23:43.640Z,6.00
2018-02-04T11:26:45.761Z,7.30
2018-02-04T11:29:47.172Z,7.27
2018-02-04T11:32:48.645Z,7.77
2018-02-04T11:35:51.465Z,7.27
2018-02-04T11:38:52.843Z,6.77
2018-02-04T11:41:54.257Z,7.17
2018-02-04T11:44:55.702Z,6.20
2018-02-04T11:47:57.023Z,5.80
2018-02-04T11:50:58.380Z,5.47
2018-02-04T11:53:59.785Z,5.53
2018-02-04T11:57:01.138Z,7.03
2018-02-04T12:00:02.603Z,6.07
2018-02-04T12:03:03.942Z,5.67
2018-02-04T12:06:05.309Z,5.60
2018-02-04T12:09:06.649Z,5.33
2018-02-04T12:12:08.042Z,5.90
2018-02-04T12:15:09.428Z,3.83
2018-02-04T12:18:10.803Z,4.10
2018-02-04T12:21:12.166Z,4.50
2018-02-04T12:24:13.531Z,4.20
2018-02-04T12:27:15.592Z,5.40
2018-02-04T12:30:16.953Z,4.20
2018-02-04T12:33:18.290Z,4.53
2018-02-04T12:36:20.395Z,5.90
2018-02-04T12:39:21.710Z,11.57
2018-02-04T12:42:23.039Z,6.17
2018-02-04T12:45:25.094Z,6.70
2018-02-04T12:48:26.450Z,6.00
2018-02-04T12:51:27.819Z,4.93
2018-02-04T12:54:29.291Z,5.50
2018-02-04T12:57:30.597Z,5.07
2018-02-04T13:00:31.928Z,5.17
2018-02-04T13:03:33.990Z,6.83
2018-02-04T13:06:35.369Z,6.47
2018-02-04T13:09:36.752Z,5.97
2018-02-04T13:12:38.087Z,5.90
2018-02-04T13:15:40.247Z,7.30
2018-02-04T13:18:41.773Z,7.23
2018-02-04T13:21:43.139Z,7.47
2018-02-04T13:24:45.289Z,10.07
2018-02-04T13:27:46.654Z,7.50
2018-02-04T13:30:48.011Z,7.70
2018-02-04T13:33:50.437Z,9.40
2018-02-04T13:36:51.926Z,7.23
2018-02-04T13:39:53.582Z,7.10
2018-02-04T13:42:55.635Z,7.30
2018-02-04T13:45:56.990Z,7.43
2018-02-04T13:48:58.530Z,8.20
2018-02-04T13:52:00.081Z,7.80
2018-02-04T13:55:01.418Z,8.50
2018-02-04T13:58:03.577Z,7.70
2018-02-04T14:01:04.909Z,7.30
2018-02-04T14:04:06.253Z,7.43
2018-02-04T14:07:07.638Z,12.20
2018-02-04T14:10:08.934Z,9.37
2018-02-04T14:13:10.994Z,8.30
2018-02-04T14:16:12.743Z,7.50
2018-02-04T14:19:14.210Z,7.70
2018-02-04T14:22:15.718Z,8.60
2018-02-04T14:25:17.127Z,7.47
2018-02-04T14:28:18.432Z,6.50
2018-02-04T14:31:20.194Z,6.93
2018-02-04T14:34:21.789Z,8.47
2018-02-04T14:37:23.333Z,7.80
2018-02-04T14:40:24.862Z,6.90
2018-02-04T14:43:26.588Z,7.80
2018-02-04T14:46:28.272Z,7.70
2018-02-04T14:49:29.678Z,7.33
2018-02-04T14:52:31.076Z,6.47
2018-02-04T14:55:32.456Z,7.60
2018-02-04T14:58:33.766Z,7.20
2018-02-04T15:01:35.039Z,8.37
2018-02-04T15:04:37.334Z,7.87
2018-02-04T15:07:38.834Z,7.20
2018-02-04T15:10:40.413Z,7.90
2018-02-04T15:13:41.747Z,7.60
2018-02-04T15:16:43.467Z,8.60
2018-02-04T15:19:45.097Z,7.63
2018-02-04T15:22:47.261Z,7.67
2018-02-04T15:25:48.876Z,7.70
2018-02-04T15:28:50.282Z,7.60
2018-02-04T15:31:51.734Z,7.50
2018-02-04T15:34:53.500Z,8.20
2018-02-04T15:37:55.231Z,7.93
2018-02-04T15:40:57.641Z,8.83
2018-02-04T15:43:59.078Z,9.00
2018-02-04T15:47:00.465Z,7.57
2018-02-04T15:50:01.897Z,8.80
2018-02-04T15:53:03.526Z,7.93
2018-02-04T15:56:04.998Z,7.17
2018-02-04T15:59:06.423Z,9.07
2018-02-04T16:02:08.027Z,10.40
2018-02-04T16:05:09.427Z,9.60
2018-02-04T16:08:10.752Z,9.63
2018-02-04T16:11:12.320Z,10.80
2018-02-04T16:14:13.731Z,10.27
2018-02-04T16:17:15.095Z,9.50
2018-02-04T16:20:16.506Z,10.70
2018-02-04T16:23:18.633Z,11.60
2018-02-04T16:26:20.012Z,11.97
2018-02-04T16:29:22.086Z,11.40
2018-02-04T16:32:23.490Z,10.17
2018-02-04T16:35:25.539Z,11.10
2018-02-04T16:38:26.865Z,10.20
2018-02-04T16:41:28.915Z,10.30
2018-02-04T16:44:31.069Z,9.13
2018-02-04T16:47:32.370Z,10.50
2018-02-04T16:50:33.667Z,10.57
2018-02-04T16:53:34.993Z,14.03
2018-02-04T16:56:37.167Z,9.40
2018-02-04T16:59:39.343Z,9.30
2018-02-04T17:02:40.707Z,8.70
2018-02-04T17:05:41.993Z,10.00
2018-02-04T17:08:43.254Z,8.53
2018-02-04T17:11:44.657Z,8.70
2018-02-04T17:14:45.998Z,7.60
2018-02-04T17:17:48.087Z,8.77
2018-02-04T17:20:50.174Z,8.87
2018-02-04T17:23:51.490Z,8.70
2018-02-04T17:26:52.834Z,8.80
2018-02-04T17:29:54.149Z,8.93
2018-02-04T17:32:55.518Z,9.00
2018-02-04T17:35:57.585Z,9.40
2018-02-04T17:38:58.914Z,9.60
2018-02-04T17:42:00.210Z,8.73
2018-02-04T17:45:01.545Z,10.20
2018-02-04T17:48:03.560Z,8.67
2018-02-04T17:51:04.877Z,8.67
2018-02-04T17:54:11.083Z,9.37
2018-02-04T17:57:12.387Z,8.93
2018-02-04T18:00:13.666Z,9.50
2018-02-04T18:03:15.154Z,11.00
2018-02-04T18:06:16.489Z,11.10
2018-02-04T18:09:18.601Z,10.80
2018-02-04T18:12:19.889Z,11.00
2018-02-04T18:15:21.203Z,9.43
2018-02-04T18:18:23.237Z,12.23
2018-02-04T18:21:24.537Z,11.10
2018-02-04T18:24:26.261Z,11.50
2018-02-04T18:27:27.574Z,12.27
2018-02-04T18:30:28.947Z,10.60
2018-02-04T18:33:30.312Z,14.90
2018-02-04T18:36:32.399Z,13.17
2018-02-04T18:39:33.752Z,13.90
2018-02-04T18:42:35.019Z,12.43
2018-02-04T18:45:36.558Z,12.47
2018-02-04T18:48:38.196Z,14.83
2018-02-04T18:51:39.839Z,14.07
2018-02-04T18:54:41.674Z,13.50
2018-02-04T18:57:43.061Z,15.40
2018-02-04T19:00:44.347Z,14.67
2018-02-04T19:03:47.842Z,14.97
2018-02-04T19:06:49.297Z,16.97
2018-02-04T19:09:51.457Z,17.80
2018-02-04T19:12:54.001Z,16.23
2018-02-04T19:15:56.810Z,16.43
2018-02-04T19:18:58.458Z,16.30
2018-02-04T19:22:01.443Z,17.30
2018-02-04T19:25:02.889Z,16.77
2018-02-04T19:28:05.251Z,16.23
2018-02-04T19:31:09.034Z,16.63
2018-02-04T19:34:11.642Z,16.90
2018-02-04T19:37:13.133Z,16.80
2018-02-04T19:40:14.595Z,18.43
2018-02-04T19:43:16.793Z,17.33
2018-02-04T19:46:18.349Z,17.17
2018-02-04T19:49:19.741Z,17.53
2018-02-04T19:52:21.535Z,19.03
2018-02-04T19:55:23.176Z,15.70
2018-02-04T19:58:24.881Z,16.67
2018-02-04T20:01:26.759Z,18.40
2018-02-04T20:04:28.599Z,19.00
2018-02-04T20:07:30.034Z,17.77
2018-02-04T20:10:32.252Z,17.73
2018-02-04T20:13:33.595Z,16.70
2018-02-04T20:16:35.200Z,18.47
2018-02-04T20:19:37.250Z,20.63
2018-02-04T20:22:38.900Z,18.30
2018-02-04T20:25:40.725Z,20.80
2018-02-04T20:28:43.049Z,18.93
2018-02-04T20:31:44.660Z,19.37
2018-02-04T20:34:51.200Z,18.63
2018-02-04T20:37:52.822Z,17.57
2018-02-04T20:40:55.010Z,21.70
2018-02-04T20:43:56.682Z,19.77
2018-02-04T20:46:58.479Z,21.40
2018-02-04T20:49:59.849Z,19.80
2018-02-04T20:53:01.237Z,20.87
2018-02-04T20:56:02.675Z,20.60
2018-02-04T20:59:04.731Z,20.20
2018-02-04T21:02:06.030Z,23.50
2018-02-04T21:05:07.501Z,20.10
2018-02-04T21:08:08.804Z,22.37
2018-02-04T21:11:10.578Z,22.53
2018-02-04T21:14:13.560Z,22.00
2018-02-04T21:17:15.114Z,21.20
2018-02-04T21:20:17.383Z,22.90
2018-02-04T21:23:18.993Z,22.30
2018-02-04T21:26:21.120Z,21.10
2018-02-04T21:29:22.572Z,21.10
2018-02-04T21:32:23.900Z,21.70
2018-02-04T21:35:25.246Z,21.00
2018-02-04T21:38:27.343Z,21.13
2018-02-04T21:41:29.602Z,20.50
2018-02-04T21:44:30.942Z,19.37
2018-02-04T21:47:32.276Z,20.40
2018-02-04T21:50:33.596Z,20.77
2018-02-04T21:53:36.190Z,19.63
2018-02-04T21:56:37.533Z,21.90
2018-02-04T21:59:38.970Z,22.20
2018-02-04T22:02:40.459Z,20.23
2018-02-04T22:05:41.873Z,20.17
2018-02-04T22:08:43.634Z,20.13
2018-02-04T22:11:45.017Z,21.13
2018-02-04T22:14:46.422Z,21.63
2018-02-04T22:17:47.912Z,21.10
2018-02-04T22:20:50.478Z,19.67
2018-02-04T22:23:51.866Z,21.50
2018-02-04T22:26:53.296Z,22.07
2018-02-04T22:29:54.715Z,22.27
2018-02-04T22:32:56.915Z,20.67
2018-02-04T22:35:59.032Z,20.77
2018-02-04T22:39:00.380Z,20.70
2018-02-04T22:42:01.704Z,21.33
2018-02-04T22:45:03.115Z,21.87
2018-02-04T22:48:04.419Z,22.30
2018-02-04T22:51:05.684Z,20.90
2018-02-04T22:54:07.726Z,20.60
2018-02-04T22:57:09.087Z,19.97
2018-02-04T23:00:11.146Z,20.70
2018-02-04T23:03:12.422Z,20.83
2018-02-04T23:06:13.732Z,21.63
2018-02-04T23:09:14.987Z,20.33
2018-02-04T23:12:16.430Z,19.57
2018-02-04T23:15:17.752Z,19.80
2018-02-04T23:18:19.088Z,20.60
2018-02-04T23:21:20.647Z,21.27
2018-02-04T23:24:22.015Z,19.93
2018-02-04T23:27:23.416Z,20.00
2018-02-04T23:30:25.534Z,18.93
2018-02-04T23:33:26.891Z,19.40
2018-02-04T23:36:28.269Z,18.30
2018-02-04T23:39:29.609Z,19.17
2018-02-04T23:42:30.987Z,19.53
2018-02-04T23:45:32.389Z,19.47
2018-02-04T23:48:33.875Z,19.17
2018-02-04T23:51:35.385Z,19.43
2018-02-04T23:54:37.502Z,20.00
2018-02-04T23:57:38.955Z,18.93
